메인 페이지
METAR-TAF:

METAR-TAF

공항 :

무르만스크, 러시아

위도: 68-58N, 경도: 033-03E, 고도: 51m

현재 날씨관측

예보는 25분 전, 16:30시(UTC)에 발표되었습니다.
6kt
온도 1°C
습도 93%
기압 1010 hPa
시정: 9000m
고도 300ft 상공 구름 많음
약한이슬비

METAR: ULMM 191630Z 27003MPS 9000 -DZ BKN003 01/00 Q1010 R31/290060 NOSIG RMK QBB090 OBST OBSC QFE750

시각: 19:55 (16:55 UTC)

예보

예보는 2 시간 57분 전, 13:58시(UTC)에 발표되었습니다.
예보 대상 시간: 19일 15시부터 20일 15시까지 (UTC)
6kt, 순간 최대 풍속 16kt
시정: 6000m
고도 500ft 상공 구름 많음
고도 1100ft 상공 구름 많음
일시적
19일 15시부터 19일 18시까지 (UTC)
서북서6kt
시정: 3100m
고도 300ft 상공 구름 많음
고도 1100ft 상공 구름 많음, 적란운.
약한소나기, 박무
전환 중
19일 18시부터 19일 20시까지 (UTC)
남서6kt, 순간 최대 풍속 16kt
시정: 3100m
박무
일시적
19일 20시부터 20일 06시까지 (UTC)
서남서6kt
시정: 0500m
고도 300ft 상공 구름 많음
고도 1100ft 상공 구름 많음, 적란운.
약한소나기, 안개
전환 중
20일 06시부터 20일 08시까지 (UTC)
시정: 6000m
고도 1100ft 상공 구름 많음
일시적
20일 08시부터 20일 15시까지 (UTC)
남남서6kt
시정: 3100m
고도 600ft 상공 구름 많음
고도 1100ft 상공 구름 많음, 적란운.
약한소나기, 박무

TAF: ULMM 191358Z 1915/2015 27003G08MPS 6000 BKN005 BKN011 TEMPO 1915/1918 29003MPS 3100 -SHRA BR BKN003 BKN011CB BECMG 1918/1920 23003G08MPS 3100 BR TEMPO 1920/2006 25003MPS 0500 -SHRA FG BKN003 BKN011CB BECMG 2006/2008 6000 NSW BKN011 TEMPO 2008/2015 21003MPS 3100 -SHRA BR BKN006 BKN011CB

4,000개 이상의 공항 관측 자료 및 예보 (METAR 및 TAF 보고).

지도상에서 검색 가능한 기상관측소가 노란 점과 빨간 점으로 표시되어 있습니다.

기상관측소 명을 보려면 표시 위로 마우스를 이동하세요.

날씨 관측과 예보를 보려면 클릭하세요.

지도 변경 : 확대하려면 엑스 표시가 있는 녹색 버튼, 축소하려면 빼기 표시가 있는 녹색 버튼, 다음 페이지의 지도를 보려면 녹색 화살표를 클릭하세요.


METAR-TAF: